Ponderosa Estates, Washington
Current Conditions -  °F | °C
As of 10:58 AM on Thursday 23 Oct 2014 (Local Time) from KTCM Reporting Station
Light Rain Light Rain  
Wind Chill: 53°   Ceiling: 3400
Heat Index: 53°   Visibility: 10mi
Dew Point: 51°   Wind: 3mph
Humidity: 95%   Direction: 220°SW
Pressure: 29.82"   Gusts: NA
Location:  47.1874°N, 122.164°W
Report Text: KTCM 231758Z AUTO 22003KT 10SM -RA SCT024 BKN034 OVC045 11/11 A2982 RMK AO2 RAB1755DZB1748E1755 SLP102 P0000 60026 T01140107 10114 20098 52023 $
Loading
Personal Weather Stations






























Interactive Weather Map
Tropical Storm Tracking
New forecast layout! Learn more

10-Day Weather Forecast

Advertisements
Track Severe Weather on mobile